createdAt,value
2019-03-28T00:00:11.548Z,5.80
2019-03-28T00:02:46.466Z,5.80
2019-03-28T00:05:20.506Z,5.80
2019-03-28T00:07:55.546Z,5.80
2019-03-28T00:10:28.510Z,5.80
2019-03-28T00:13:01.307Z,5.80
2019-03-28T00:15:36.666Z,5.80
2019-03-28T00:18:10.546Z,5.80
2019-03-28T00:20:44.646Z,5.80
2019-03-28T00:23:29.629Z,5.80
2019-03-28T00:26:03.254Z,5.80
2019-03-28T00:28:36.974Z,5.80
2019-03-28T00:31:10.429Z,5.80
2019-03-28T00:33:49.826Z,5.80
2019-03-28T00:36:24.586Z,5.80
2019-03-28T00:38:59.826Z,5.80
2019-03-28T00:44:06.626Z,5.80
2019-03-28T00:46:38.587Z,5.80
2019-03-28T00:49:10.928Z,5.80
2019-03-28T00:51:46.588Z,5.80
2019-03-28T00:54:24.006Z,5.80
2019-03-28T00:56:57.887Z,5.80
2019-03-28T00:59:31.479Z,5.80
2019-03-28T01:02:07.066Z,5.80
2019-03-28T01:04:44.086Z,5.70
2019-03-28T01:07:18.106Z,5.80
2019-03-28T01:09:57.254Z,5.70
2019-03-28T01:12:33.217Z,5.70
2019-03-28T01:15:09.206Z,5.70
2019-03-28T01:17:45.226Z,5.70
2019-03-28T01:20:21.206Z,5.60
2019-03-28T01:22:56.267Z,5.60
2019-03-28T01:25:32.086Z,5.60
2019-03-28T01:28:07.425Z,5.60
2019-03-28T01:30:41.445Z,5.60
2019-03-28T01:33:15.405Z,5.60
2019-03-28T01:35:51.425Z,5.60
2019-03-28T01:38:25.406Z,5.60
2019-03-28T01:40:59.406Z,5.60
2019-03-28T01:43:33.521Z,5.60
2019-03-28T01:46:07.506Z,5.60
2019-03-28T01:48:39.386Z,5.60
2019-03-28T01:51:15.445Z,5.60
2019-03-28T01:53:49.454Z,5.60
2019-03-28T01:56:24.997Z,5.60
2019-03-28T01:58:57.486Z,5.60
2019-03-28T02:01:34.646Z,5.50
2019-03-28T02:04:08.686Z,5.60
2019-03-28T02:06:46.785Z,5.50
2019-03-28T02:09:20.765Z,5.50
2019-03-28T02:11:55.785Z,5.50
2019-03-28T02:14:29.732Z,5.50
2019-03-28T02:17:03.946Z,5.50
2019-03-28T02:19:36.847Z,5.50
2019-03-28T02:22:10.880Z,5.50
2019-03-28T02:24:45.913Z,5.50
2019-03-28T02:27:24.265Z,5.50
2019-03-28T02:29:55.830Z,5.50
2019-03-28T02:32:33.818Z,5.50
2019-03-28T02:35:09.077Z,5.50
2019-03-28T02:37:41.126Z,5.40
2019-03-28T02:40:15.150Z,5.40
2019-03-28T02:42:47.948Z,5.40
2019-03-28T02:45:21.966Z,5.40
2019-03-28T02:47:55.206Z,5.40
2019-03-28T02:50:29.969Z,5.40
2019-03-28T02:53:03.147Z,5.40
2019-03-28T02:55:39.265Z,5.40
2019-03-28T02:58:13.286Z,5.40
2019-03-28T03:00:48.098Z,5.40
2019-03-28T03:03:22.066Z,5.30
2019-03-28T03:05:56.066Z,5.40
2019-03-28T03:08:29.266Z,5.40
2019-03-28T03:11:03.265Z,5.40
2019-03-28T03:13:41.446Z,5.40
2019-03-28T03:16:17.465Z,5.40
2019-03-28T03:18:51.555Z,5.40
2019-03-28T03:21:26.526Z,5.40
2019-03-28T03:23:59.468Z,5.40
2019-03-28T03:26:31.438Z,5.40
2019-03-28T03:29:07.671Z,5.40
2019-03-28T03:31:46.708Z,5.40
2019-03-28T03:34:23.288Z,5.30
2019-03-28T03:36:56.678Z,5.30
2019-03-28T03:39:30.488Z,5.30
2019-03-28T03:42:04.495Z,5.30
2019-03-28T03:44:56.448Z,5.30
2019-03-28T03:47:23.627Z,5.30
2019-03-28T03:49:50.856Z,5.30
2019-03-28T03:52:18.112Z,5.30
2019-03-28T03:54:45.669Z,5.30
2019-03-28T03:57:13.226Z,5.30
2019-03-28T03:59:40.566Z,5.30
2019-03-28T04:02:08.033Z,5.30
2019-03-28T04:04:35.228Z,5.20
2019-03-28T04:07:02.746Z,5.20
2019-03-28T04:09:30.008Z,5.20
2019-03-28T04:11:57.370Z,5.30
2019-03-28T04:14:24.596Z,5.30
2019-03-28T04:16:52.087Z,5.30
2019-03-28T04:19:19.428Z,5.30
2019-03-28T04:21:46.668Z,5.30
2019-03-28T04:24:14.126Z,5.30
2019-03-28T04:26:41.394Z,5.30
2019-03-28T04:29:08.628Z,5.30
2019-03-28T04:31:39.211Z,5.30
2019-03-28T04:34:08.774Z,5.30
2019-03-28T04:36:36.439Z,5.30
2019-03-28T04:39:04.889Z,5.30
2019-03-28T04:41:32.449Z,5.30
2019-03-28T04:43:59.634Z,5.30
2019-03-28T04:46:27.069Z,5.30
2019-03-28T04:48:54.328Z,5.30
2019-03-28T04:51:21.766Z,5.30
2019-03-28T04:53:49.846Z,5.20
2019-03-28T04:56:17.130Z,5.20
2019-03-28T04:58:45.077Z,5.30
2019-03-28T05:01:12.319Z,5.30
2019-03-28T05:03:39.570Z,5.20
2019-03-28T05:06:07.349Z,5.20
2019-03-28T05:08:34.768Z,5.30
2019-03-28T05:11:02.107Z,5.30
2019-03-28T05:13:29.454Z,5.30
2019-03-28T05:15:57.295Z,5.30
2019-03-28T05:18:25.149Z,5.30
2019-03-28T05:20:52.366Z,5.40
2019-03-28T05:23:19.766Z,5.40
2019-03-28T05:25:47.145Z,5.40
2019-03-28T05:28:14.623Z,5.50
2019-03-28T05:30:41.886Z,5.50
2019-03-28T05:33:09.546Z,5.50
2019-03-28T05:35:36.807Z,5.60
2019-03-28T05:38:04.046Z,5.60
2019-03-28T05:40:31.313Z,5.60
2019-03-28T05:42:58.546Z,5.70
2019-03-28T05:45:25.806Z,5.60
2019-03-28T05:50:22.848Z,5.80
2019-03-28T05:52:50.138Z,5.90
2019-03-28T05:55:17.588Z,5.90
2019-03-28T05:57:44.926Z,6.00
2019-03-28T06:00:12.907Z,6.10
2019-03-28T06:02:40.110Z,6.10
2019-03-28T06:05:07.693Z,6.20
2019-03-28T06:07:35.093Z,6.30
2019-03-28T06:10:05.627Z,6.30
2019-03-28T06:12:32.827Z,6.40
2019-03-28T06:15:00.414Z,6.40
2019-03-28T06:17:28.437Z,6.50
2019-03-28T06:19:57.058Z,6.50
2019-03-28T06:22:24.206Z,6.60
2019-03-28T06:24:51.446Z,6.70
2019-03-28T06:27:18.707Z,6.70
2019-03-28T06:29:46.046Z,6.80
2019-03-28T06:32:13.289Z,6.90
2019-03-28T06:34:40.768Z,6.90
2019-03-28T06:37:08.330Z,7.00
2019-03-28T06:39:36.587Z,7.00
2019-03-28T06:42:04.152Z,7.20
2019-03-28T06:44:31.386Z,7.20
2019-03-28T06:46:58.647Z,7.40
2019-03-28T06:49:25.838Z,7.40
2019-03-28T06:51:53.167Z,7.50
2019-03-28T06:54:20.647Z,7.60
2019-03-28T06:56:48.766Z,7.60
2019-03-28T06:59:16.146Z,7.60
2019-03-28T07:01:43.606Z,7.70
2019-03-28T07:04:11.436Z,7.80
2019-03-28T07:06:38.706Z,7.90
2019-03-28T07:09:08.092Z,8.00
2019-03-28T07:11:35.888Z,8.00
2019-03-28T07:14:03.676Z,8.00
2019-03-28T07:16:30.874Z,8.10
2019-03-28T07:18:58.246Z,8.20
2019-03-28T07:21:25.506Z,8.20
2019-03-28T07:23:52.749Z,8.20
2019-03-28T07:26:20.286Z,8.20
2019-03-28T07:28:47.767Z,8.20
2019-03-28T07:31:15.116Z,8.40
2019-03-28T07:33:42.367Z,8.40
2019-03-28T07:36:09.827Z,8.30
2019-03-28T07:38:37.065Z,8.40
2019-03-28T07:41:04.966Z,8.40
2019-03-28T07:43:32.286Z,8.60
2019-03-28T07:45:59.620Z,8.70
2019-03-28T07:48:27.493Z,8.70
2019-03-28T07:50:54.866Z,8.90
2019-03-28T07:53:22.128Z,9.00
2019-03-28T07:55:49.786Z,8.90
2019-03-28T07:58:17.226Z,8.80
2019-03-28T08:00:44.490Z,8.70
2019-03-28T08:03:11.825Z,8.90
2019-03-28T08:05:39.446Z,8.80
2019-03-28T08:08:07.066Z,8.70
2019-03-28T08:10:34.406Z,8.90
2019-03-28T08:13:01.866Z,9.00
2019-03-28T08:15:29.227Z,9.20
2019-03-28T08:17:58.346Z,9.30
2019-03-28T08:20:25.745Z,9.30
2019-03-28T08:22:53.026Z,9.30
2019-03-28T08:25:20.248Z,9.40
2019-03-28T08:27:47.625Z,9.40
2019-03-28T08:30:18.776Z,9.60
2019-03-28T08:32:44.870Z,9.80
2019-03-28T08:35:12.666Z,10.10
2019-03-28T08:37:40.967Z,10.20
2019-03-28T08:40:09.085Z,10.40
2019-03-28T08:42:36.465Z,10.40
2019-03-28T08:45:07.392Z,10.50
2019-03-28T08:47:34.629Z,10.70
2019-03-28T08:50:02.365Z,10.80
2019-03-28T08:52:29.745Z,10.90
2019-03-28T08:54:57.546Z,11.20
2019-03-28T08:57:24.870Z,11.40
2019-03-28T09:02:37.206Z,11.80
2019-03-28T09:05:05.489Z,11.80
2019-03-28T09:07:33.086Z,11.90
2019-03-28T09:10:01.089Z,12.00
2019-03-28T09:12:28.349Z,12.00
2019-03-28T09:14:55.804Z,12.00
2019-03-28T09:17:23.936Z,12.00
2019-03-28T09:19:51.356Z,11.90
2019-03-28T09:22:18.588Z,12.10
2019-03-28T09:24:45.848Z,12.30
2019-03-28T09:27:13.290Z,12.30
2019-03-28T09:29:40.750Z,12.20
2019-03-28T09:32:07.998Z,12.30
2019-03-28T09:34:35.384Z,12.50
2019-03-28T09:37:02.604Z,12.60
2019-03-28T09:39:29.963Z,12.70
2019-03-28T09:41:57.223Z,12.70
2019-03-28T09:44:25.082Z,12.40
2019-03-28T09:46:52.743Z,12.40
2019-03-28T09:49:20.283Z,12.50
2019-03-28T09:51:47.549Z,12.50
2019-03-28T09:54:15.107Z,12.70
2019-03-28T09:56:42.382Z,12.70
2019-03-28T09:59:09.803Z,12.50
2019-03-28T10:01:37.165Z,12.60
2019-03-28T10:04:06.427Z,12.50
2019-03-28T10:06:34.157Z,12.60
2019-03-28T10:09:01.486Z,12.50
2019-03-28T10:11:28.963Z,12.60
2019-03-28T10:13:56.382Z,12.50
2019-03-28T10:16:23.744Z,12.60
2019-03-28T10:18:51.564Z,12.60
2019-03-28T10:21:18.966Z,12.70
2019-03-28T10:23:47.145Z,12.80
2019-03-28T10:26:14.503Z,12.80
2019-03-28T10:28:41.744Z,12.70
2019-03-28T10:31:16.310Z,12.90
2019-03-28T10:33:38.410Z,12.80
2019-03-28T10:36:05.991Z,12.70
2019-03-28T10:38:33.539Z,12.80
2019-03-28T10:41:01.072Z,13.00
2019-03-28T10:43:28.692Z,13.30
2019-03-28T10:45:56.191Z,12.90
2019-03-28T10:48:23.672Z,13.20
2019-03-28T10:50:51.055Z,13.40
2019-03-28T10:53:18.475Z,13.40
2019-03-28T10:55:45.711Z,13.40
2019-03-28T10:58:18.568Z,13.20
2019-03-28T11:00:42.993Z,13.20
2019-03-28T11:03:10.412Z,12.80
2019-03-28T11:05:37.911Z,12.90
2019-03-28T11:08:05.394Z,13.00
2019-03-28T11:10:32.814Z,13.20
2019-03-28T11:13:00.232Z,13.20
2019-03-28T11:15:27.831Z,13.10
2019-03-28T11:17:55.166Z,13.50
2019-03-28T11:20:22.804Z,13.70
2019-03-28T11:22:50.511Z,13.90
2019-03-28T11:25:18.390Z,14.10
2019-03-28T11:27:45.908Z,14.40
2019-03-28T11:30:13.992Z,14.40
2019-03-28T11:32:41.548Z,14.50
2019-03-28T11:35:09.130Z,14.60
2019-03-28T11:37:49.628Z,14.70
2019-03-28T11:40:17.428Z,14.80
2019-03-28T11:42:45.089Z,14.90
2019-03-28T11:45:12.756Z,15.20
2019-03-28T11:47:40.208Z,15.30
2019-03-28T11:50:09.728Z,15.20
2019-03-28T11:52:37.168Z,15.10
2019-03-28T11:55:10.389Z,15.10
2019-03-28T11:57:37.770Z,15.00
2019-03-28T12:00:12.370Z,14.70
2019-03-28T12:02:39.930Z,14.40
2019-03-28T12:05:07.968Z,14.40
2019-03-28T12:07:35.249Z,14.30
2019-03-28T12:10:05.807Z,14.20
2019-03-28T12:12:33.713Z,14.20
2019-03-28T12:15:01.536Z,14.10
2019-03-28T12:17:28.928Z,13.70
2019-03-28T12:19:56.691Z,13.80
2019-03-28T12:22:23.930Z,13.90
2019-03-28T12:24:51.514Z,13.90
2019-03-28T12:27:19.173Z,13.90
2019-03-28T12:29:46.628Z,14.00
2019-03-28T12:32:14.661Z,14.10
2019-03-28T12:34:42.448Z,14.10
2019-03-28T12:37:10.815Z,14.10
2019-03-28T12:39:38.491Z,14.20
2019-03-28T12:42:05.848Z,14.30
2019-03-28T12:44:33.092Z,14.10
2019-03-28T12:47:00.388Z,14.10
2019-03-28T12:49:28.407Z,14.10
2019-03-28T12:51:55.768Z,14.10
2019-03-28T12:54:23.887Z,14.10
2019-03-28T12:56:51.288Z,14.20
2019-03-28T12:59:18.648Z,14.30
2019-03-28T13:01:46.209Z,14.10
2019-03-28T13:04:14.429Z,14.10
2019-03-28T13:06:42.012Z,13.90
2019-03-28T13:09:10.184Z,13.90
2019-03-28T13:11:37.803Z,14.00
2019-03-28T13:14:05.509Z,14.00
2019-03-28T13:16:32.784Z,13.90
2019-03-28T13:19:00.056Z,13.90
2019-03-28T13:21:27.497Z,13.80
2019-03-28T13:23:54.737Z,13.80
2019-03-28T13:26:22.138Z,13.70
2019-03-28T13:28:49.451Z,13.50
2019-03-28T13:31:16.577Z,13.50
2019-03-28T13:33:44.195Z,13.60
2019-03-28T13:36:11.682Z,13.60
2019-03-28T13:38:39.057Z,13.50
2019-03-28T13:41:06.317Z,13.50
2019-03-28T13:43:33.616Z,13.50
2019-03-28T13:46:00.915Z,13.60
2019-03-28T13:48:28.475Z,13.40
2019-03-28T13:50:55.636Z,13.50
2019-03-28T13:53:23.161Z,13.50
2019-03-28T13:55:52.211Z,13.30
2019-03-28T13:58:19.757Z,13.10
2019-03-28T14:00:47.296Z,13.10
2019-03-28T14:03:14.363Z,12.90
2019-03-28T14:05:42.096Z,13.10
2019-03-28T14:08:09.456Z,13.30
2019-03-28T14:10:37.082Z,13.30
2019-03-28T14:13:04.757Z,13.20
2019-03-28T14:15:32.033Z,13.10
2019-03-28T14:17:59.196Z,13.20
2019-03-28T14:20:26.495Z,13.30
2019-03-28T14:22:53.801Z,13.40
2019-03-28T14:25:21.026Z,13.60
2019-03-28T14:27:48.199Z,13.80
2019-03-28T14:30:15.816Z,13.90
2019-03-28T14:32:53.271Z,13.80
2019-03-28T14:35:12.303Z,13.90
2019-03-28T14:37:40.859Z,13.90
2019-03-28T14:40:10.899Z,14.10
2019-03-28T14:42:38.240Z,14.20
2019-03-28T14:45:07.399Z,13.70
2019-03-28T14:47:34.665Z,13.60
2019-03-28T14:50:01.976Z,13.70
2019-03-28T14:52:29.223Z,13.80
2019-03-28T14:54:56.421Z,13.70
2019-03-28T14:57:24.191Z,13.70
2019-03-28T14:59:52.961Z,13.70
2019-03-28T15:02:20.158Z,13.60
2019-03-28T15:04:47.404Z,13.50
2019-03-28T15:07:15.019Z,13.50
2019-03-28T15:09:42.227Z,13.50
2019-03-28T15:12:10.359Z,13.50
2019-03-28T15:14:37.739Z,13.40
2019-03-28T15:17:04.972Z,13.20
2019-03-28T15:19:32.233Z,13.10
2019-03-28T15:21:59.395Z,13.00
2019-03-28T15:24:26.877Z,12.90
2019-03-28T15:26:54.808Z,12.80
2019-03-28T15:29:22.329Z,12.70
2019-03-28T15:31:49.972Z,12.70
2019-03-28T15:34:17.566Z,12.70
2019-03-28T15:36:44.699Z,12.60
2019-03-28T15:39:14.069Z,12.70
2019-03-28T15:41:41.476Z,12.70
2019-03-28T15:44:09.262Z,12.70
2019-03-28T15:46:36.701Z,12.60
2019-03-28T15:49:04.503Z,12.50
2019-03-28T15:51:31.821Z,12.60
2019-03-28T15:53:59.062Z,12.60
2019-03-28T15:56:26.471Z,12.60
2019-03-28T15:58:54.225Z,12.70
2019-03-28T16:01:21.480Z,12.70
2019-03-28T16:03:53.318Z,12.80
2019-03-28T16:06:17.916Z,12.80
2019-03-28T16:08:45.274Z,12.70
2019-03-28T16:11:12.451Z,12.70
2019-03-28T16:13:39.614Z,12.60
2019-03-28T16:16:06.833Z,12.50
2019-03-28T16:18:34.045Z,12.50
2019-03-28T16:21:01.516Z,12.50
2019-03-28T16:23:29.493Z,12.50
2019-03-28T16:25:57.023Z,12.40
2019-03-28T16:28:27.807Z,12.30
2019-03-28T16:30:53.877Z,12.20
2019-03-28T16:33:21.143Z,12.10
2019-03-28T16:35:48.319Z,12.10
2019-03-28T16:38:15.843Z,12.00
2019-03-28T16:40:43.404Z,12.00
2019-03-28T16:43:11.163Z,11.90
2019-03-28T16:45:38.300Z,11.80
2019-03-28T16:50:28.100Z,11.70
2019-03-28T16:52:55.304Z,11.70
2019-03-28T16:55:26.522Z,11.60
2019-03-28T16:57:51.586Z,11.60
2019-03-28T17:00:20.924Z,11.60
2019-03-28T17:02:48.461Z,11.60
2019-03-28T17:05:15.860Z,11.50
2019-03-28T17:07:44.150Z,11.50
2019-03-28T17:10:19.396Z,11.50
2019-03-28T17:12:46.614Z,11.50
2019-03-28T17:15:13.880Z,11.50
2019-03-28T17:17:41.084Z,11.50
2019-03-28T17:20:08.423Z,11.40
2019-03-28T17:22:35.863Z,11.40
2019-03-28T17:25:04.500Z,11.30
2019-03-28T17:27:31.742Z,11.30
2019-03-28T17:29:58.871Z,11.30
2019-03-28T17:32:26.021Z,11.30
2019-03-28T17:37:23.437Z,11.30
2019-03-28T17:39:50.699Z,11.30
2019-03-28T17:42:17.906Z,11.30
2019-03-28T17:44:45.140Z,11.20
2019-03-28T17:47:12.368Z,11.20
2019-03-28T17:49:39.560Z,11.20
2019-03-28T17:52:06.640Z,11.10
2019-03-28T17:54:33.733Z,11.10
2019-03-28T17:57:01.300Z,11.10
2019-03-28T17:59:28.500Z,11.10
2019-03-28T18:01:55.635Z,11.10
2019-03-28T18:04:23.466Z,11.10
2019-03-28T18:06:51.064Z,11.10
2019-03-28T18:09:18.873Z,11.10
2019-03-28T18:11:46.038Z,11.00
2019-03-28T18:14:13.273Z,11.00
2019-03-28T18:16:40.592Z,11.00
2019-03-28T18:19:07.883Z,11.00
2019-03-28T18:21:35.523Z,10.90
2019-03-28T18:24:03.268Z,10.90
2019-03-28T18:26:30.863Z,10.90
2019-03-28T18:28:58.523Z,10.80
2019-03-28T18:31:25.771Z,10.80
2019-03-28T18:33:53.018Z,10.80
2019-03-28T18:36:20.822Z,10.80
2019-03-28T18:38:48.043Z,10.70
2019-03-28T18:41:15.243Z,10.70
2019-03-28T18:43:42.863Z,10.70
2019-03-28T18:46:10.102Z,10.70
2019-03-28T18:48:38.374Z,10.70
2019-03-28T18:51:06.268Z,10.70
2019-03-28T18:53:33.409Z,10.70
2019-03-28T18:56:00.610Z,10.60
2019-03-28T18:58:27.789Z,10.50
2019-03-28T19:00:55.057Z,10.50
2019-03-28T19:03:22.238Z,10.40
2019-03-28T19:05:49.396Z,10.30
2019-03-28T19:08:16.516Z,10.30
2019-03-28T19:10:43.751Z,10.20
2019-03-28T19:13:10.929Z,10.20
2019-03-28T19:15:38.129Z,10.10
2019-03-28T19:18:05.789Z,10.10
2019-03-28T19:20:33.402Z,10.00
2019-03-28T19:23:01.148Z,10.00
2019-03-28T19:25:28.365Z,9.90
2019-03-28T19:27:56.332Z,9.90
2019-03-28T19:30:32.729Z,9.90
2019-03-28T19:33:00.073Z,9.80
2019-03-28T19:35:33.113Z,9.80
2019-03-28T19:37:58.048Z,9.70
2019-03-28T19:40:25.889Z,9.80
2019-03-28T19:42:53.469Z,9.80
2019-03-28T19:45:35.693Z,9.80
2019-03-28T19:48:03.075Z,9.80
2019-03-28T19:50:30.508Z,9.80
2019-03-28T19:52:58.049Z,9.70
2019-03-28T19:55:25.588Z,9.70
2019-03-28T19:57:52.862Z,9.80
2019-03-28T20:00:20.256Z,9.70
2019-03-28T20:02:47.758Z,9.80
2019-03-28T20:05:14.897Z,9.80
2019-03-28T20:07:45.710Z,9.80
2019-03-28T20:10:16.622Z,9.80
2019-03-28T20:12:41.837Z,9.80
2019-03-28T20:15:09.998Z,9.80
2019-03-28T20:17:37.197Z,9.80
2019-03-28T20:20:07.916Z,9.80
2019-03-28T20:22:35.138Z,9.90
2019-03-28T20:25:03.736Z,10.00
2019-03-28T20:27:31.876Z,10.10
2019-03-28T20:30:00.892Z,10.20
2019-03-28T20:32:28.595Z,10.20
2019-03-28T20:34:56.193Z,10.30
2019-03-28T20:37:23.856Z,10.20
2019-03-28T20:39:51.059Z,10.20
2019-03-28T20:42:18.343Z,10.20
2019-03-28T20:44:46.200Z,10.10
2019-03-28T20:47:13.878Z,10.00
2019-03-28T20:49:41.062Z,10.00
2019-03-28T20:52:09.667Z,10.00
2019-03-28T20:54:37.228Z,9.90
2019-03-28T20:57:04.488Z,9.90
2019-03-28T20:59:31.988Z,9.90
2019-03-28T21:01:59.134Z,9.80
2019-03-28T21:04:31.479Z,9.80
2019-03-28T21:06:55.852Z,9.70
2019-03-28T21:09:23.429Z,9.70
2019-03-28T21:11:51.936Z,9.70
2019-03-28T21:14:19.335Z,9.70
2019-03-28T21:16:46.695Z,9.70
2019-03-28T21:19:14.395Z,9.80
2019-03-28T21:21:44.537Z,9.80
2019-03-28T21:24:11.775Z,9.80
2019-03-28T21:26:38.935Z,9.80
2019-03-28T21:29:06.476Z,9.80
2019-03-28T21:31:33.795Z,9.80
2019-03-28T21:34:01.271Z,9.80
2019-03-28T21:36:30.031Z,9.70
2019-03-28T21:38:57.677Z,9.60
2019-03-28T21:41:25.138Z,9.60
2019-03-28T21:43:52.416Z,9.50
2019-03-28T21:46:19.656Z,9.50
2019-03-28T21:48:46.818Z,9.40
2019-03-28T21:51:14.058Z,9.30
2019-03-28T21:53:41.396Z,9.30
2019-03-28T21:56:08.658Z,9.20
2019-03-28T21:58:36.036Z,9.20
2019-03-28T22:01:03.255Z,9.10
2019-03-28T22:03:30.935Z,9.00
2019-03-28T22:08:26.375Z,8.90
2019-03-28T22:10:53.535Z,8.80
2019-03-28T22:13:21.268Z,8.70
2019-03-28T22:15:49.336Z,8.70
2019-03-28T22:18:17.296Z,8.60
2019-03-28T22:20:44.692Z,8.50
2019-03-28T22:23:13.727Z,8.50
2019-03-28T22:25:41.396Z,8.40
2019-03-28T22:28:08.856Z,8.40
2019-03-28T22:30:36.117Z,8.30
2019-03-28T22:33:03.357Z,8.30
2019-03-28T22:37:57.975Z,8.20
2019-03-28T22:40:25.399Z,8.10
2019-03-28T22:42:52.695Z,8.10
2019-03-28T22:45:19.916Z,8.00
2019-03-28T22:47:47.376Z,8.00
2019-03-28T22:50:14.935Z,7.90
2019-03-28T22:52:42.678Z,7.90
2019-03-28T22:55:10.995Z,7.90
2019-03-28T22:57:38.349Z,7.80
2019-03-28T23:00:10.456Z,7.80
2019-03-28T23:02:38.396Z,7.80
2019-03-28T23:05:06.995Z,7.80
2019-03-28T23:07:34.295Z,7.80
2019-03-28T23:10:01.641Z,7.80
2019-03-28T23:12:29.516Z,7.70
2019-03-28T23:14:56.638Z,7.70
2019-03-28T23:17:23.915Z,7.70
2019-03-28T23:19:51.875Z,7.70
2019-03-28T23:22:19.562Z,7.60
2019-03-28T23:24:46.695Z,7.60
2019-03-28T23:27:14.495Z,7.60
2019-03-28T23:29:41.956Z,7.60
2019-03-28T23:32:09.476Z,7.60
2019-03-28T23:34:36.617Z,7.60
2019-03-28T23:37:03.978Z,7.60
2019-03-28T23:39:31.317Z,7.60
2019-03-28T23:41:58.516Z,7.70
2019-03-28T23:44:25.715Z,7.80
2019-03-28T23:46:53.005Z,7.90
2019-03-28T23:49:20.455Z,7.90
2019-03-28T23:51:48.196Z,7.90
2019-03-28T23:54:15.863Z,7.80
2019-03-28T23:56:43.216Z,7.70
2019-03-28T23:59:10.908Z,7.70
